Time;durP1;ratioP1;P1;durP2;ratioP2;P2;SDS_P1;SDS_P2;PMS_P1;PMS_P2;Temp;Humidity;BMP_temperature;BMP_pressure;BME280_temperature;BME280_humidity;BME280_pressure;Samples;Min_cycle;Max_cycle;Signal;HPM_P1;HPM_P2
2021/12/24 00:00:29;;;;;;;47.83;22.85;;;9.60;99.90;;;;;;4209849;28;20090;-77
2021/12/24 00:02:31;;;;;;;49.95;23.25;;;9.60;99.90;;;;;;4217065;28;20045;-77
2021/12/24 00:04:33;;;;;;;63.78;26.88;;;9.60;99.90;;;;;;4209909;28;20040;-78
2021/12/24 00:06:36;;;;;;;60.60;26.10;;;9.50;99.90;;;;;;4209401;28;20052;-77
2021/12/24 00:08:39;;;;;;;60.30;26.15;;;9.50;99.90;;;;;;4209573;28;20074;-78
2021/12/24 00:10:43;;;;;;;67.90;27.35;;;9.50;99.90;;;;;;4249572;27;20058;-77
2021/12/24 00:12:54;;;;;;;65.72;28.85;;;9.50;99.90;;;;;;4233111;27;20217;-77
2021/12/24 00:15:02;;;;;;;76.50;30.73;;;9.50;99.90;;;;;;4230839;28;20048;-78
2021/12/24 00:17:05;;;;;;;60.58;28.30;;;9.50;99.90;;;;;;4210081;28;20056;-78
2021/12/24 00:35:31;;;;;;;87.65;31.63;;;9.30;99.90;;;;;;4216103;28;20131;-80
2021/12/24 00:37:33;;;;;;;80.85;31.42;;;9.30;99.90;;;;;;4215812;28;20665;-79
2021/12/24 00:39:42;;;;;;;84.53;31.45;;;9.30;99.90;;;;;;4217327;28;20060;-77
2021/12/24 00:41:45;;;;;;;89.35;32.03;;;9.30;99.90;;;;;;4214730;28;20104;-77
2021/12/24 00:43:47;;;;;;;100.47;33.47;;;9.20;99.90;;;;;;4197679;28;20041;-78
2021/12/24 00:45:49;;;;;;;99.35;33.88;;;9.20;99.90;;;;;;4206750;28;20048;-79
2021/12/24 00:47:52;;;;;;;92.28;33.05;;;9.20;99.90;;;;;;4200240;28;20056;-79
2021/12/24 00:49:54;;;;;;;93.95;32.22;;;9.20;99.90;;;;;;4222311;28;20055;-81
2021/12/24 00:52:17;;;;;;;89.68;31.65;;;9.20;99.90;;;;;;4198230;28;22671;-77
2021/12/24 00:56:38;;;;;;;91.30;31.45;;;9.20;99.90;;;;;;4219064;28;20082;-77
2021/12/24 00:58:41;;;;;;;81.22;32.60;;;9.20;99.90;;;;;;4207648;28;20080;-77
2021/12/24 01:00:43;;;;;;;89.82;32.15;;;9.20;99.90;;;;;;4212133;28;20135;-78
2021/12/24 01:02:46;;;;;;;99.93;35.53;;;9.20;99.90;;;;;;4206691;28;20050;-79
2021/12/24 01:04:48;;;;;;;98.57;33.42;;;9.20;99.90;;;;;;4211184;28;20055;-77
2021/12/24 01:06:50;;;;;;;113.20;35.53;;;9.20;99.90;;;;;;4214137;28;20464;-77
2021/12/24 01:08:52;;;;;;;102.88;34.08;;;9.20;99.90;;;;;;4214078;28;20043;-78
2021/12/24 01:10:57;;;;;;;87.65;33.88;;;9.20;99.90;;;;;;4212098;28;20036;-78
2021/12/24 01:13:00;;;;;;;99.18;32.45;;;9.20;99.90;;;;;;4205530;28;20059;-78
2021/12/24 01:15:03;;;;;;;95.60;33.97;;;9.20;99.90;;;;;;4214562;28;20140;-77
2021/12/24 01:17:18;;;;;;;93.50;34.35;;;9.20;99.90;;;;;;4212576;28;20144;-77
2021/12/24 01:19:23;;;;;;;113.25;33.85;;;9.10;99.90;;;;;;4207968;28;20133;-76
2021/12/24 01:23:41;;;;;;;89.25;33.40;;;9.20;99.90;;;;;;4215305;28;20098;-79
2021/12/24 01:25:52;;;;;;;85.30;33.90;;;9.10;99.90;;;;;;4213844;28;20051;-77
2021/12/24 01:37:49;;;;;;;83.63;32.58;;;9.10;99.90;;;;;;4214228;28;20090;-78
2021/12/24 01:44:14;;;;;;;82.20;29.75;;;9.10;99.90;;;;;;4214462;28;20126;-75
2021/12/24 01:46:16;;;;;;;78.80;29.80;;;9.10;99.90;;;;;;4213086;28;20075;-78
2021/12/24 01:48:19;;;;;;;67.30;28.33;;;9.10;99.90;;;;;;4211456;28;20044;-78
2021/12/24 01:50:22;;;;;;;74.93;28.63;;;9.10;99.90;;;;;;4213290;28;20086;-78
2021/12/24 01:52:24;;;;;;;69.32;29.92;;;9.10;99.90;;;;;;4213668;28;20041;-78
2021/12/24 01:54:26;;;;;;;71.10;29.27;;;9.10;99.90;;;;;;4213242;28;20131;-77
2021/12/24 01:56:28;;;;;;;75.13;31.75;;;9.10;99.90;;;;;;4212901;28;20503;-77
2021/12/24 01:58:31;;;;;;;77.40;30.77;;;9.10;99.90;;;;;;4196204;28;20049;-77
2021/12/24 02:00:39;;;;;;;65.85;27.77;;;9.10;99.90;;;;;;4196692;28;20088;-77
2021/12/24 02:02:41;;;;;;;73.05;27.75;;;9.10;99.90;;;;;;4230556;28;20498;-77
2021/12/24 02:04:43;;;;;;;61.22;27.27;;;9.20;99.90;;;;;;4195542;28;20512;-76
2021/12/24 02:06:46;;;;;;;65.25;26.40;;;9.30;99.90;;;;;;4187209;28;20132;-77
2021/12/24 02:08:47;;;;;;;55.35;25.70;;;9.30;99.90;;;;;;4179780;28;20076;-78
2021/12/24 02:10:50;;;;;;;56.75;26.55;;;9.30;99.90;;;;;;4181101;28;20084;-77
2021/12/24 02:12:53;;;;;;;59.75;27.92;;;9.30;99.90;;;;;;4194548;28;20048;-78
2021/12/24 02:14:58;;;;;;;55.25;26.88;;;9.30;99.90;;;;;;4196530;28;20131;-77
2021/12/24 02:28:30;;;;;;;62.42;26.70;;;9.10;99.90;;;;;;4186816;28;20163;-77
2021/12/24 02:30:32;;;;;;;60.88;26.02;;;9.10;99.90;;;;;;4208166;28;20068;-79
2021/12/24 02:32:34;;;;;;;62.65;26.30;;;9.10;99.90;;;;;;4213329;28;20076;-77
2021/12/24 02:34:36;;;;;;;54.70;24.77;;;9.10;99.90;;;;;;4198057;28;20132;-78
2021/12/24 02:36:39;;;;;;;65.15;26.73;;;9.10;99.90;;;;;;4183270;28;20076;-78
2021/12/24 02:38:42;;;;;;;63.08;25.92;;;9.10;99.90;;;;;;4196401;28;20052;-79
2021/12/24 02:40:44;;;;;;;65.20;25.83;;;9.00;99.90;;;;;;4182425;28;20052;-79
2021/12/24 02:42:51;;;;;;;63.45;25.98;;;9.00;99.90;;;;;;4165029;28;20084;-77
2021/12/24 02:44:53;;;;;;;61.17;26.15;;;9.00;99.90;;;;;;4171890;28;20044;-77
2021/12/24 02:49:07;;;;;;;54.30;23.67;;;9.00;99.90;;;;;;4180974;28;20087;-77
2021/12/24 02:55:50;;;;;;;56.40;23.67;;;9.20;99.90;;;;;;4165522;28;20602;-80
2021/12/24 02:57:53;;;;;;;60.10;23.92;;;9.10;99.90;;;;;;4179195;28;20045;-79
2021/12/24 03:00:00;;;;;;;54.60;22.92;;;9.10;99.90;;;;;;4178011;28;20084;-77
2021/12/24 03:02:03;;;;;;;58.60;23.10;;;9.30;99.90;;;;;;4170929;28;20056;-79
2021/12/24 03:04:05;;;;;;;60.00;24.05;;;9.30;99.90;;;;;;4183811;28;20938;-79
2021/12/24 03:06:08;;;;;;;47.75;21.55;;;9.30;99.90;;;;;;4186354;28;20056;-78
2021/12/24 03:08:10;;;;;;;57.70;23.52;;;9.30;99.90;;;;;;4213071;28;20083;-79
2021/12/24 03:10:16;;;;;;;45.28;22.58;;;9.40;99.90;;;;;;4212880;28;20093;-78
2021/12/24 03:12:19;;;;;;;57.17;22.38;;;9.40;99.90;;;;;;4212651;28;20052;-77
2021/12/24 03:14:22;;;;;;;65.97;23.92;;;9.40;99.90;;;;;;4214751;28;20079;-80
2021/12/24 03:16:24;;;;;;;69.25;28.80;;;9.40;99.90;;;;;;4180737;28;20049;-79
2021/12/24 03:18:29;;;;;;;61.47;26.23;;;9.40;99.90;;;;;;4212561;28;20048;-77
2021/12/24 03:20:34;;;;;;;54.10;23.83;;;9.40;99.90;;;;;;4213226;28;20055;-78
2021/12/24 03:24:41;;;;;;;53.47;22.52;;;9.40;99.90;;;;;;4180944;28;20132;-78
2021/12/24 03:26:45;;;;;;;54.50;20.77;;;9.40;99.90;;;;;;4179118;28;20128;-79
2021/12/24 03:28:47;;;;;;;48.25;21.00;;;9.40;99.90;;;;;;4211871;28;20084;-78
2021/12/24 03:30:49;;;;;;;53.75;20.92;;;9.40;99.90;;;;;;4227620;28;20079;-77
2021/12/24 03:32:51;;;;;;;40.10;18.10;;;9.40;99.90;;;;;;4178760;28;20053;-77
2021/12/24 03:34:53;;;;;;;47.20;18.45;;;9.40;99.90;;;;;;4213145;28;20071;-78
2021/12/24 03:36:55;;;;;;;40.45;17.80;;;9.40;99.90;;;;;;4212548;28;20419;-78
2021/12/24 03:38:57;;;;;;;41.35;18.23;;;9.50;99.90;;;;;;4186448;28;20131;-78
2021/12/24 03:40:59;;;;;;;47.05;21.27;;;9.40;99.90;;;;;;4216294;28;20068;-78
2021/12/24 03:43:01;;;;;;;47.03;21.08;;;9.40;99.90;;;;;;4179093;28;20076;-78
2021/12/24 03:45:19;;;;;;;49.10;20.80;;;9.40;99.90;;;;;;4212224;28;20074;-79
2021/12/24 03:47:22;;;;;;;48.95;20.17;;;9.50;99.90;;;;;;4193438;28;20053;-80
2021/12/24 03:55:57;;;;;;;39.65;18.60;;;9.40;99.90;;;;;;4196573;28;20048;-78
2021/12/24 03:57:59;;;;;;;42.40;19.10;;;9.40;99.90;;;;;;4184617;28;20471;-77
2021/12/24 04:00:08;;;;;;;40.50;18.35;;;9.40;99.90;;;;;;4225240;28;20459;-77
2021/12/24 04:02:10;;;;;;;35.92;18.00;;;9.40;99.90;;;;;;4182207;28;20085;-79
2021/12/24 04:04:12;;;;;;;41.05;18.88;;;9.40;99.90;;;;;;4182158;28;20049;-78
2021/12/24 04:06:14;;;;;;;40.92;18.67;;;9.40;99.90;;;;;;4179861;28;20088;-81
2021/12/24 04:08:17;;;;;;;44.53;19.27;;;9.40;99.90;;;;;;4178644;28;20076;-78
2021/12/24 04:10:32;;;;;;;34.72;17.67;;;9.40;99.90;;;;;;4184004;28;20052;-77
2021/12/24 04:12:34;;;;;;;32.40;15.90;;;9.50;99.90;;;;;;4197901;28;20083;-77
2021/12/24 04:14:36;;;;;;;34.80;15.30;;;9.50;99.90;;;;;;4198409;28;20534;-77
2021/12/24 04:16:38;;;;;;;38.03;16.02;;;9.50;99.90;;;;;;4198394;28;20099;-77
2021/12/24 04:18:50;;;;;;;37.78;17.08;;;9.50;99.90;;;;;;4196867;28;20048;-77
2021/12/24 04:25:33;;;;;;;41.55;18.08;;;9.50;99.90;;;;;;4171759;28;20053;-78
2021/12/24 04:27:36;;;;;;;36.47;16.90;;;9.50;99.90;;;;;;4181456;28;20088;-77
2021/12/24 04:29:38;;;;;;;37.33;16.67;;;9.50;99.90;;;;;;4181973;28;20543;-78
2021/12/24 04:31:46;;;;;;;32.90;16.70;;;9.50;99.90;;;;;;4181648;28;20536;-79
2021/12/24 04:33:50;;;;;;;29.25;15.30;;;9.50;99.90;;;;;;4179995;28;20116;-78
2021/12/24 04:51:58;;;;;;;29.02;15.02;;;9.50;99.90;;;;;;4177792;28;20076;-79
2021/12/24 05:03:29;;;;;;;30.05;13.90;;;9.50;99.90;;;;;;4182557;28;20045;-78
2021/12/24 05:09:42;;;;;;;29.30;14.75;;;9.50;99.90;;;;;;4207880;28;20535;-78
2021/12/24 05:11:44;;;;;;;30.10;14.55;;;9.50;99.90;;;;;;4198259;28;20568;-78
2021/12/24 05:13:47;;;;;;;30.45;13.73;;;9.50;99.90;;;;;;4181979;28;20076;-78
2021/12/24 05:15:51;;;;;;;26.98;14.32;;;9.50;99.90;;;;;;4185252;28;20045;-83
2021/12/24 05:18:09;;;;;;;32.60;14.20;;;9.60;99.90;;;;;;4204985;28;20143;-79
2021/12/24 05:22:33;;;;;;;29.13;14.23;;;9.60;99.90;;;;;;4198727;28;20443;-79
2021/12/24 05:24:34;;;;;;;32.78;13.57;;;9.50;99.90;;;;;;4197736;28;20499;-78
2021/12/24 05:26:36;;;;;;;27.02;13.50;;;9.50;99.90;;;;;;4196062;28;20052;-77
2021/12/24 05:28:39;;;;;;;31.83;13.80;;;9.50;99.90;;;;;;4196726;28;20127;-79
2021/12/24 05:30:45;;;;;;;28.90;14.73;;;9.50;99.90;;;;;;4197649;28;20048;-78
2021/12/24 05:32:48;;;;;;;31.70;14.80;;;9.50;99.90;;;;;;4214877;28;20079;-78
2021/12/24 05:34:49;;;;;;;31.35;15.18;;;9.50;99.90;;;;;;4217488;28;20082;-79
2021/12/24 05:36:51;;;;;;;30.75;15.02;;;9.50;99.90;;;;;;4197001;28;20092;-78
2021/12/24 05:38:53;;;;;;;27.48;14.75;;;9.50;99.90;;;;;;4228847;28;20133;-78
2021/12/24 05:40:55;;;;;;;31.25;14.52;;;9.50;99.90;;;;;;4196666;28;20057;-78
2021/12/24 05:42:57;;;;;;;31.23;14.68;;;9.50;99.90;;;;;;4178962;28;20148;-78
2021/12/24 05:45:05;;;;;;;31.77;14.95;;;9.50;99.90;;;;;;4196744;28;20522;-78
2021/12/24 05:47:08;;;;;;;28.30;14.35;;;9.50;99.90;;;;;;4180565;28;20055;-78
2021/12/24 05:49:10;;;;;;;26.55;13.88;;;9.50;99.90;;;;;;4213606;28;20047;-78
2021/12/24 05:51:12;;;;;;;25.85;13.30;;;9.50;99.90;;;;;;4180015;28;20084;-78
2021/12/24 05:53:14;;;;;;;28.85;14.15;;;9.50;99.90;;;;;;4198160;28;20135;-78
2021/12/24 05:55:16;;;;;;;27.58;13.43;;;9.50;99.90;;;;;;4187831;28;20416;-78
2021/12/24 05:57:18;;;;;;;25.20;13.75;;;9.50;99.90;;;;;;4196844;28;20076;-78
2021/12/24 05:59:20;;;;;;;25.55;12.88;;;9.40;99.90;;;;;;4220106;28;20083;-79
2021/12/24 06:01:23;;;;;;;23.80;12.32;;;9.40;99.90;;;;;;4196429;28;20076;-78
2021/12/24 06:03:26;;;;;;;29.00;13.20;;;9.40;99.90;;;;;;4180294;28;20094;-78
2021/12/24 06:05:28;;;;;;;23.02;12.57;;;9.40;99.90;;;;;;4213431;28;20083;-77
2021/12/24 06:07:30;;;;;;;26.83;12.32;;;9.40;99.90;;;;;;4180014;28;20131;-78
2021/12/24 06:09:32;;;;;;;28.55;12.45;;;9.40;99.90;;;;;;4192272;28;20094;-77
2021/12/24 06:11:34;;;;;;;30.48;12.68;;;9.40;99.90;;;;;;4193739;28;20083;-78
2021/12/24 06:13:36;;;;;;;25.25;12.25;;;9.40;99.90;;;;;;4197573;28;20048;-79
2021/12/24 06:15:44;;;;;;;24.00;11.30;;;9.40;99.90;;;;;;4212774;28;20080;-78
2021/12/24 06:17:47;;;;;;;20.85;10.77;;;9.30;99.90;;;;;;4216910;28;20079;-79
2021/12/24 06:19:50;;;;;;;21.33;10.93;;;9.30;99.90;;;;;;4182953;28;20084;-79
2021/12/24 06:21:52;;;;;;;25.38;10.35;;;9.30;99.90;;;;;;4196266;28;20542;-78
2021/12/24 06:23:56;;;;;;;20.85;10.82;;;9.30;99.90;;;;;;4194535;28;20128;-79
2021/12/24 06:25:59;;;;;;;17.13;9.73;;;9.30;99.90;;;;;;4197702;28;20476;-78
2021/12/24 06:28:01;;;;;;;25.98;9.85;;;9.30;99.90;;;;;;4196469;28;20104;-78
2021/12/24 06:30:05;;;;;;;19.63;9.63;;;9.30;99.90;;;;;;4179691;28;20084;-78
2021/12/24 06:32:08;;;;;;;18.35;9.88;;;9.30;99.90;;;;;;4194044;28;20049;-79
2021/12/24 06:34:10;;;;;;;22.33;10.88;;;9.30;99.90;;;;;;4212874;28;20077;-78
2021/12/24 06:36:13;;;;;;;18.98;10.48;;;9.30;99.90;;;;;;4197479;28;20098;-79
2021/12/24 06:38:15;;;;;;;24.17;10.55;;;9.30;99.90;;;;;;4213191;28;20154;-78
2021/12/24 06:40:17;;;;;;;22.80;11.25;;;9.30;99.90;;;;;;4179992;28;20076;-79
2021/12/24 06:42:19;;;;;;;22.63;10.38;;;9.20;99.90;;;;;;4191699;28;20081;-78
2021/12/24 06:44:22;;;;;;;24.67;11.52;;;9.20;99.90;;;;;;4221558;28;20075;-79
2021/12/24 06:46:24;;;;;;;19.70;10.48;;;9.20;99.90;;;;;;4195745;28;20082;-79
2021/12/24 06:48:26;;;;;;;24.08;12.07;;;9.20;99.90;;;;;;4187539;28;20044;-77
2021/12/24 06:50:29;;;;;;;23.13;11.32;;;9.20;99.90;;;;;;4224359;28;20040;-77
2021/12/24 06:52:31;;;;;;;24.35;10.80;;;9.20;99.90;;;;;;4190015;28;20131;-78
2021/12/24 06:54:33;;;;;;;22.10;11.13;;;9.10;99.90;;;;;;4205413;28;20559;-80
2021/12/24 06:56:35;;;;;;;22.48;11.15;;;9.10;99.90;;;;;;4223571;28;20164;-79
2021/12/24 06:58:37;;;;;;;23.95;11.07;;;9.10;99.90;;;;;;4188838;28;20141;-79
2021/12/24 07:00:39;;;;;;;23.02;11.20;;;9.10;99.90;;;;;;4219670;28;20052;-78
2021/12/24 07:02:42;;;;;;;24.38;12.50;;;9.10;99.90;;;;;;4185434;28;20257;-79
2021/12/24 07:04:44;;;;;;;23.33;12.10;;;9.10;99.90;;;;;;4191531;28;20983;-78
2021/12/24 07:06:46;;;;;;;24.20;11.77;;;9.10;99.90;;;;;;4223779;28;20671;-78
2021/12/24 07:08:48;;;;;;;20.27;11.63;;;9.10;99.90;;;;;;4189813;28;20147;-79
2021/12/24 07:10:51;;;;;;;23.00;12.68;;;9.10;99.90;;;;;;4203628;28;20055;-78
2021/12/24 07:12:53;;;;;;;21.35;12.40;;;9.10;99.90;;;;;;4221641;28;20103;-78
2021/12/24 07:14:55;;;;;;;25.25;11.57;;;9.20;99.90;;;;;;4190077;28;20052;-79
2021/12/24 07:16:56;;;;;;;25.42;12.55;;;9.20;99.90;;;;;;4191678;28;20064;-78
2021/12/24 07:18:58;;;;;;;24.77;12.35;;;9.20;99.90;;;;;;4192922;28;20108;-78
2021/12/24 07:21:01;;;;;;;26.40;12.65;;;9.20;99.90;;;;;;4195611;28;20601;-77
2021/12/24 07:23:04;;;;;;;24.58;12.57;;;9.20;99.90;;;;;;4221174;28;20087;-78
2021/12/24 07:25:07;;;;;;;26.40;13.50;;;9.20;99.90;;;;;;4216635;28;20051;-78
2021/12/24 07:27:09;;;;;;;27.52;12.40;;;9.20;99.90;;;;;;4186452;28;20055;-79
2021/12/24 07:29:11;;;;;;;31.35;12.80;;;9.20;99.90;;;;;;4212547;28;20299;-82
2021/12/24 07:31:13;;;;;;;26.08;12.32;;;9.20;99.90;;;;;;4230231;28;20068;-82
2021/12/24 07:33:15;;;;;;;23.65;11.63;;;9.20;99.90;;;;;;4197163;28;20064;-82
2021/12/24 07:35:17;;;;;;;23.77;12.73;;;9.20;99.90;;;;;;4230356;28;20740;-76
2021/12/24 07:37:19;;;;;;;21.73;11.15;;;9.20;99.90;;;;;;4199750;28;20124;-78
2021/12/24 07:39:21;;;;;;;29.08;13.68;;;9.20;99.90;;;;;;4209111;28;20075;-78
2021/12/24 07:41:25;;;;;;;25.27;12.90;;;9.20;99.90;;;;;;4192965;28;21012;-78
2021/12/24 07:43:27;;;;;;;27.20;13.18;;;9.20;99.90;;;;;;4212755;28;20091;-79
2021/12/24 07:45:29;;;;;;;30.40;14.23;;;9.20;99.90;;;;;;4192445;28;20140;-78
2021/12/24 07:47:36;;;;;;;34.30;15.45;;;9.30;99.90;;;;;;4185227;28;20129;-78
2021/12/24 07:49:41;;;;;;;30.38;14.38;;;9.30;99.90;;;;;;4225223;28;20584;-77
2021/12/24 07:54:04;;;;;;;28.48;15.80;;;9.30;99.90;;;;;;4202578;28;20383;-78
2021/12/24 07:56:06;;;;;;;29.92;14.80;;;9.30;99.90;;;;;;4215413;28;20778;-78
2021/12/24 07:58:09;;;;;;;24.77;14.02;;;9.30;99.90;;;;;;4182101;28;20061;-77
2021/12/24 08:00:11;;;;;;;34.63;14.60;;;9.30;99.90;;;;;;4215282;28;20087;-78
2021/12/24 08:02:21;;;;;;;27.35;15.27;;;9.30;99.90;;;;;;4182074;28;20124;-76
2021/12/24 08:04:23;;;;;;;28.08;14.60;;;9.30;99.90;;;;;;4187440;28;20558;-76
2021/12/24 08:06:26;;;;;;;26.80;13.65;;;9.30;99.90;;;;;;4216691;28;20138;-78
2021/12/24 08:08:28;;;;;;;30.10;14.77;;;9.30;99.90;;;;;;4181795;28;20069;-76
2021/12/24 08:10:31;;;;;;;26.52;14.45;;;9.30;99.90;;;;;;4182322;28;20072;-76
2021/12/24 08:12:33;;;;;;;25.33;13.82;;;9.30;99.90;;;;;;4196471;28;20121;-79
2021/12/24 08:14:35;;;;;;;25.63;12.82;;;9.30;99.90;;;;;;4230172;28;20541;-76
2021/12/24 08:16:37;;;;;;;26.75;13.88;;;9.30;99.90;;;;;;4216058;28;20079;-77
2021/12/24 08:18:43;;;;;;;26.02;13.50;;;9.30;99.90;;;;;;4222121;28;20497;-78
2021/12/24 08:20:44;;;;;;;26.20;13.63;;;9.30;99.90;;;;;;4192241;28;20139;-77
2021/12/24 08:22:46;;;;;;;25.05;13.68;;;9.40;99.90;;;;;;4182751;28;20451;-77
2021/12/24 08:24:48;;;;;;;27.10;13.77;;;9.40;99.90;;;;;;4194258;28;20049;-75
2021/12/24 08:26:51;;;;;;;25.48;14.15;;;9.40;99.90;;;;;;4181682;28;20048;-79
2021/12/24 08:28:53;;;;;;;25.10;13.15;;;9.50;99.90;;;;;;4188405;28;20075;-80
2021/12/24 08:30:55;;;;;;;26.10;13.02;;;9.40;99.90;;;;;;4199313;28;20072;-79
2021/12/24 08:33:00;;;;;;;22.60;13.02;;;9.40;99.90;;;;;;4214101;28;20048;-79
2021/12/24 08:35:03;;;;;;;23.38;13.57;;;9.40;99.90;;;;;;4194434;28;20049;-78
2021/12/24 08:37:06;;;;;;;24.80;13.93;;;9.40;99.90;;;;;;4181445;28;20536;-79
2021/12/24 08:39:08;;;;;;;24.90;13.38;;;9.40;99.90;;;;;;4180837;28;20049;-77
2021/12/24 08:41:10;;;;;;;25.23;12.95;;;9.40;99.90;;;;;;4181502;28;20069;-81
2021/12/24 08:43:12;;;;;;;24.80;13.60;;;9.40;99.90;;;;;;4184445;28;20084;-78
2021/12/24 08:45:14;;;;;;;27.60;13.88;;;9.40;99.90;;;;;;4223499;28;20127;-78
2021/12/24 08:47:16;;;;;;;24.85;14.23;;;9.40;99.90;;;;;;4192935;28;20055;-81
2021/12/24 08:49:20;;;;;;;23.63;13.32;;;9.40;99.90;;;;;;4219847;28;20137;-79
2021/12/24 08:51:22;;;;;;;24.88;13.15;;;9.40;99.90;;;;;;4214700;28;20053;-79
2021/12/24 08:53:24;;;;;;;24.70;13.15;;;9.40;99.90;;;;;;4196553;28;20079;-80
2021/12/24 08:55:26;;;;;;;22.90;13.07;;;9.50;99.90;;;;;;4192865;28;20076;-79
2021/12/24 08:57:28;;;;;;;25.20;14.40;;;9.50;99.90;;;;;;4192175;28;20056;-77
2021/12/24 08:59:30;;;;;;;25.10;12.80;;;9.50;99.90;;;;;;4199655;28;20424;-79
2021/12/24 09:01:32;;;;;;;21.95;13.02;;;9.60;99.90;;;;;;4197272;28;20084;-77
2021/12/24 09:03:34;;;;;;;19.77;12.35;;;9.50;99.90;;;;;;4197923;28;20462;-79
2021/12/24 09:05:36;;;;;;;20.98;11.80;;;9.60;99.90;;;;;;4181182;28;20056;-79
2021/12/24 09:07:38;;;;;;;25.48;13.50;;;9.60;99.90;;;;;;4214700;28;20051;-79
2021/12/24 09:09:40;;;;;;;22.33;13.10;;;9.60;99.90;;;;;;4188390;28;20676;-79
2021/12/24 09:11:43;;;;;;;19.58;12.38;;;9.60;99.90;;;;;;4212811;28;20058;-79
2021/12/24 09:13:45;;;;;;;22.05;11.90;;;9.60;99.90;;;;;;4196465;28;20083;-78
2021/12/24 09:15:47;;;;;;;21.05;13.32;;;9.60;99.90;;;;;;4185518;28;20128;-78
2021/12/24 09:17:49;;;;;;;20.48;11.90;;;9.60;99.90;;;;;;4215384;28;20048;-83
2021/12/24 09:19:52;;;;;;;25.63;12.25;;;9.60;99.90;;;;;;4183098;28;20071;-80
2021/12/24 09:21:56;;;;;;;17.48;11.27;;;9.60;99.90;;;;;;4200607;28;20078;-78
2021/12/24 09:23:58;;;;;;;17.77;11.57;;;9.60;99.90;;;;;;4215078;28;20044;-80
2021/12/24 09:26:12;;;;;;;15.60;10.05;;;9.60;99.90;;;;;;4226181;28;20055;-79
2021/12/24 09:28:14;;;;;;;17.48;10.55;;;9.60;99.90;;;;;;4225415;28;20055;-77
2021/12/24 09:30:17;;;;;;;16.55;10.25;;;9.60;99.90;;;;;;4197887;28;20518;-77
2021/12/24 09:32:19;;;;;;;19.00;10.80;;;9.60;99.90;;;;;;4196499;28;20535;-78
2021/12/24 09:34:21;;;;;;;14.93;10.38;;;9.60;99.90;;;;;;4181088;28;20163;-78
2021/12/24 09:36:25;;;;;;;16.35;10.85;;;9.60;99.90;;;;;;4181326;28;20052;-78
2021/12/24 09:38:27;;;;;;;23.98;11.75;;;9.60;99.90;;;;;;4214575;28;20044;-78
2021/12/24 09:40:30;;;;;;;19.33;11.00;;;9.60;99.90;;;;;;4214005;28;20059;-79
2021/12/24 09:42:34;;;;;;;21.05;11.95;;;9.60;99.90;;;;;;4196564;28;20048;-79
2021/12/24 09:44:36;;;;;;;22.60;11.07;;;9.60;99.90;;;;;;4235443;28;20048;-84
2021/12/24 09:46:42;;;;;;;17.00;11.38;;;9.60;99.90;;;;;;4195062;28;20053;-77
2021/12/24 09:48:44;;;;;;;18.30;11.55;;;9.60;99.90;;;;;;4223759;28;20127;-77
2021/12/24 09:50:46;;;;;;;26.00;12.10;;;9.60;99.90;;;;;;4213177;28;20083;-77
2021/12/24 09:52:49;;;;;;;16.88;11.73;;;9.60;99.90;;;;;;4196335;28;20045;-77
2021/12/24 09:54:51;;;;;;;18.88;12.00;;;9.60;99.90;;;;;;4196614;28;20048;-80
2021/12/24 09:56:56;;;;;;;24.90;12.57;;;9.60;99.90;;;;;;4197980;28;20080;-79
2021/12/24 09:58:57;;;;;;;23.15;12.95;;;9.70;99.90;;;;;;4213561;28;20083;-80
2021/12/24 10:01:00;;;;;;;19.67;11.82;;;9.70;99.90;;;;;;4187391;28;20076;-78
2021/12/24 10:03:03;;;;;;;23.40;12.50;;;9.70;99.90;;;;;;4205918;28;20135;-77
2021/12/24 10:05:19;;;;;;;23.13;12.38;;;9.70;99.90;;;;;;4230126;28;20102;-78
2021/12/24 10:07:24;;;;;;;25.13;13.40;;;9.70;99.90;;;;;;4196639;28;20087;-77
2021/12/24 10:09:49;;;;;;;23.08;14.00;;;9.80;99.90;;;;;;4195400;28;20526;-77
2021/12/24 10:11:56;;;;;;;27.08;13.30;;;9.80;99.90;;;;;;4196551;28;20045;-78
2021/12/24 10:14:05;;;;;;;22.55;13.43;;;9.80;99.90;;;;;;4180541;28;20131;-78
2021/12/24 10:16:08;;;;;;;20.77;12.52;;;9.80;99.90;;;;;;4213495;28;20076;-78
2021/12/24 10:18:28;;;;;;;22.52;12.90;;;9.80;99.90;;;;;;4212644;28;20044;-80
2021/12/24 10:20:29;;;;;;;24.88;13.45;;;9.80;99.90;;;;;;4214606;28;20073;-78
2021/12/24 10:22:42;;;;;;;22.05;13.00;;;9.80;99.90;;;;;;4229945;28;20051;-79
2021/12/24 10:25:00;;;;;;;24.20;14.00;;;9.80;99.90;;;;;;4194950;28;20492;-77
2021/12/24 10:27:02;;;;;;;22.23;13.57;;;9.80;99.90;;;;;;4212572;28;20079;-77
2021/12/24 10:29:12;;;;;;;21.45;13.70;;;9.80;99.90;;;;;;4196690;28;20055;-79
2021/12/24 10:31:20;;;;;;;24.15;13.45;;;9.80;99.90;;;;;;4194802;28;20045;-79
2021/12/24 10:33:22;;;;;;;24.75;14.70;;;9.80;99.90;;;;;;4207310;28;20051;-79
2021/12/24 10:35:26;;;;;;;22.88;14.45;;;9.80;99.90;;;;;;4197533;28;20056;-79
2021/12/24 10:37:28;;;;;;;23.85;13.90;;;9.80;99.90;;;;;;4196207;28;20742;-79
2021/12/24 10:39:37;;;;;;;20.25;13.18;;;9.90;99.90;;;;;;4194687;28;20550;-77
2021/12/24 10:41:45;;;;;;;21.40;13.65;;;9.90;99.90;;;;;;4215019;28;20122;-77
2021/12/24 10:43:47;;;;;;;21.10;13.52;;;9.90;99.90;;;;;;4194119;28;20103;-78
2021/12/24 10:46:09;;;;;;;22.25;14.40;;;9.90;99.90;;;;;;4195836;28;20087;-78
2021/12/24 10:48:19;;;;;;;20.77;13.52;;;9.90;99.90;;;;;;4195683;28;20550;-77
2021/12/24 10:52:44;;;;;;;21.90;13.50;;;10.00;99.90;;;;;;4196252;28;20128;-78
2021/12/24 10:55:18;;;;;;;25.90;14.70;;;10.00;99.90;;;;;;4196106;28;20080;-77
2021/12/24 10:57:23;;;;;;;24.42;15.82;;;10.10;99.90;;;;;;4170218;28;20424;-77
2021/12/24 10:59:45;;;;;;;27.42;14.88;;;10.00;99.90;;;;;;4196022;28;20091;-77
2021/12/24 11:02:07;;;;;;;25.25;14.80;;;10.00;99.90;;;;;;4203844;28;20148;-79
2021/12/24 11:04:09;;;;;;;23.20;14.40;;;10.10;99.90;;;;;;4196931;28;20094;-78
2021/12/24 11:06:15;;;;;;;21.77;13.85;;;10.10;99.90;;;;;;4212175;28;20062;-77
2021/12/24 11:08:23;;;;;;;23.08;14.55;;;10.10;99.90;;;;;;4196087;28;20569;-76
2021/12/24 11:10:28;;;;;;;22.63;14.57;;;10.10;99.90;;;;;;4202410;28;20072;-77
2021/12/24 11:12:37;;;;;;;40.58;18.42;;;10.10;99.90;;;;;;4197246;28;20048;-78
2021/12/24 11:14:39;;;;;;;44.35;22.75;;;10.20;99.90;;;;;;4197398;28;20080;-77
2021/12/24 11:16:45;;;;;;;46.65;24.00;;;10.20;99.90;;;;;;4213072;28;20075;-77
2021/12/24 11:19:02;;;;;;;49.13;25.52;;;10.20;99.90;;;;;;4200289;28;20118;-78
2021/12/24 11:21:05;;;;;;;41.90;22.48;;;10.20;99.90;;;;;;4193909;28;20083;-79
2021/12/24 11:23:15;;;;;;;29.70;18.50;;;10.30;99.90;;;;;;4195523;28;20478;-77
2021/12/24 11:25:19;;;;;;;23.60;14.48;;;10.30;99.90;;;;;;4179360;28;20603;-79
2021/12/24 11:27:21;;;;;;;21.25;13.70;;;10.40;99.90;;;;;;4212541;28;20051;-78
2021/12/24 11:29:23;;;;;;;18.73;13.18;;;10.40;99.90;;;;;;4197257;28;20088;-77
2021/12/24 11:31:28;;;;;;;17.42;12.85;;;10.40;99.90;;;;;;4218641;28;20048;-77
2021/12/24 11:33:33;;;;;;;19.90;13.27;;;10.50;99.90;;;;;;4195730;28;20098;-78
2021/12/24 11:35:35;;;;;;;;;;;10.50;99.90;;;;;;4195841;28;20473;-77
2021/12/24 11:37:40;;;;;;;22.20;12.60;;;10.50;99.90;;;;;;4197487;28;20301;-78
2021/12/24 11:39:43;;;;;;;17.70;12.50;;;10.50;99.90;;;;;;4180119;28;20119;-77
2021/12/24 11:41:45;;;;;;;18.52;11.85;;;10.50;99.90;;;;;;4221126;28;20078;-79
2021/12/24 11:43:52;;;;;;;17.48;12.35;;;10.50;99.90;;;;;;4195650;28;20103;-78
2021/12/24 11:45:59;;;;;;;16.67;11.65;;;10.50;99.90;;;;;;4194271;28;20147;-78
2021/12/24 11:48:02;;;;;;;17.80;11.98;;;10.50;99.90;;;;;;4195901;28;20102;-77
2021/12/24 11:50:06;;;;;;;15.60;10.95;;;10.50;99.90;;;;;;4210195;28;20071;-78
2021/12/24 11:52:08;;;;;;;17.33;11.05;;;10.50;99.90;;;;;;4212925;28;20083;-79
2021/12/24 11:54:13;;;;;;;15.95;11.35;;;10.60;99.90;;;;;;4183205;28;20083;-77
2021/12/24 11:56:17;;;;;;;17.50;12.07;;;10.60;99.90;;;;;;4180181;28;20080;-84
2021/12/24 11:58:25;;;;;;;17.95;11.20;;;10.70;99.90;;;;;;4183376;28;20069;-78
2021/12/24 12:00:31;;;;;;;16.20;11.25;;;10.80;99.90;;;;;;4196340;28;20131;-77
2021/12/24 12:02:33;;;;;;;17.17;10.75;;;10.90;99.90;;;;;;4189797;28;20540;-78
2021/12/24 12:04:35;;;;;;;15.13;10.85;;;10.90;99.90;;;;;;4195586;28;20040;-78
2021/12/24 12:06:37;;;;;;;18.00;11.50;;;11.00;99.90;;;;;;4213290;28;20055;-78
2021/12/24 12:08:44;;;;;;;18.20;10.80;;;11.10;99.90;;;;;;4229151;28;20079;-79
2021/12/24 12:10:54;;;;;;;16.45;11.10;;;11.20;99.90;;;;;;4224062;28;20435;-78
2021/12/24 12:12:56;;;;;;;14.75;10.68;;;11.20;99.90;;;;;;4192553;28;20045;-79
2021/12/24 12:15:28;;;;;;;13.82;10.60;;;11.30;99.90;;;;;;4199315;28;20080;-77
2021/12/24 12:17:29;;;;;;;16.75;10.85;;;11.40;99.90;;;;;;4199919;28;20136;-79
2021/12/24 12:22:29;;;;;;;15.32;10.40;;;11.50;99.90;;;;;;4205920;28;20075;-78